NY Terminal Aviation Weather Discussion (AFD)
VFR.

NORTHWEST GUSTS CONTINUE OVERNIGHT HOWEVER DIMINISH SOMEWHAT TO 25 
TO 30 KT. GUSTS INCREASE DURING THE DAY THURSDAY...35 TO 38 
KT...WITH SOME GUSTS IN THE LATE MORNING INTO THE EARLY AFTERNOON
AROUND 40 KT.


*************************************************************************************
KJFK Terminal Weather:

FTNA35 KJFK 232337 RRF
KJFK 232331Z 2400/2506 32021G34KT P6SM SCT060
     FM240200 32019G28KT P6SM SKC
     FM241400 32024G36KT P6SM SKC
     FM242200 33018G30KT P6SM SKC
     FM250200 33012G18KT P6SM SKC
KJFK FCSTER COMMENTS: WINDS TO THE RIGHT OF 310 TRUE THURSDAY. GUSTS 
INCREASE AND AT TIMES MAY APPROACH 40 KT.

*************************************************************************************
KLGA Terminal Weather:
FTUS80 KLGA 232333 RRB
KLGA 232331Z 2400/2424 33023G34KT P6SM FEW060
     FM240200 33020G29KT P6SM SKC
     FM241400 33026G37KT P6SM SKC
     FM242200 34017G29KT P6SM SKC
KLGA FCSTER COMMENTS: WINDS TO THE RIGHT OF 310 TRUE THURSDAY. GUSTS 
INCREASE AND AT TIMES MAY APPROACH 40 KT.

*************************************************************************************
KEWR Terminal Weather:
FTUS80 KEWR 232333 RRA
KEWR 232331Z 2400/2506 33021G34KT P6SM FEW050
     FM240200 32017G25KT P6SM SKC
     FM241400 32024G34KT P6SM SKC
     FM242200 32017G27KT P6SM SKC
     FM250200 34012KT P6SM SKC
KEWR FCSTER COMMENTS: WINDS TO THE RIGHT OF 310 TRUE THURSDAY. GUSTS 
INCREASE AND AT TIMES MAY APPROACH 40 KT.

*************************************************************************************
KTEB Terminal Weather:
FTUS80 KTEB 232333 RRC
KTEB 232331Z 2400/2424 32017G27KT P6SM SCT040
     FM240100 32014G22KT P6SM SKC
     FM241400 33021G32KT P6SM SKC
     FM242200 33016G23KT P6SM SKC
KTEB FCSTER COMMENTS: WINDS TO THE RIGHT OF 310 TRUE THURSDAY. GUSTS 
INCREASE TO AROUND 35 KT.

*************************************************************************************
KHPN Terminal Weather:
FTUS80 KHPN 232333 RRA
KHPN 232331Z 2400/2424 31019G27KT P6SM FEW040
     FM240200 32016G25KT P6SM SKC
     FM241400 32024G35KT P6SM SKC
     FM242200 33018G26KT P6SM SKC AMD NOT SKED
KHPN FCSTER COMMENTS: WINDS TO THE RIGHT OF 310 TRUE THURSDAY. GUSTS 
INCREASE TO 35 TO 40 KT. 

*************************************************************************************
KISP Terminal Weather:
FTUS80 KISP 232333 RRA
KISP 232331Z 2400/2424 32017G30KT P6SM BKN050
     FM240200 32015G23KT P6SM SKC
     FM241400 32026G38KT P6SM SKC
     FM242200 32020G31KT P6SM SKC
KISP FCSTER COMMENTS: WINDS TO THE RIGHT OF 310 TRUE THURSDAY. GUSTS 
INCREASE AND AT TIMES MAY APPROACH 40 KT.
  

*************************************************************************************
5 Day General Outlook:

.OUTLOOK FOR 00Z FRIDAY THROUGH MONDAY...
.THU NIGHT...NW GUSTS ENDING DURING THE EVENING.
.FRI...VFR. CHC NIGHTTIME -SHRA AND MVFR.
.SAT...VFR. CHC -SHRA AND MVFR.
.SUN...VFR. NW G20-25KT.
.MON...VFR.


Click the Print Icon print icon below to print the briefing sheet